createdAt,value
2024-03-26T00:00:41.309Z,99493.23
2024-03-26T00:03:29.318Z,99495.92
2024-03-26T00:05:57.897Z,99493.02
2024-03-26T00:08:27.915Z,99496.80
2024-03-26T00:10:57.833Z,99499.35
2024-03-26T00:13:26.922Z,99503.40
2024-03-26T00:15:54.692Z,99507.40
2024-03-26T00:18:22.360Z,99510.17
2024-03-26T00:20:51.345Z,99516.20
2024-03-26T00:23:19.010Z,99511.27
2024-03-26T00:25:46.675Z,99508.58
2024-03-26T00:28:16.894Z,99506.95
2024-03-26T00:30:44.768Z,99507.86
2024-03-26T00:33:14.778Z,99509.34
2024-03-26T00:35:42.508Z,99509.00
2024-03-26T00:38:10.616Z,99515.85
2024-03-26T00:40:40.430Z,99519.44
2024-03-26T00:43:08.196Z,99517.88
2024-03-26T00:45:38.211Z,99522.17
2024-03-26T00:48:06.594Z,99528.14
2024-03-26T00:50:34.355Z,99533.95
2024-03-26T00:53:03.885Z,99538.47
2024-03-26T00:55:31.832Z,99539.73
2024-03-26T00:57:59.701Z,99545.45
2024-03-26T01:00:28.693Z,99545.22
2024-03-26T01:02:56.343Z,99547.90
2024-03-26T01:05:24.023Z,99543.88
2024-03-26T01:07:53.118Z,99546.36
2024-03-26T01:10:21.287Z,99543.44
2024-03-26T01:12:51.712Z,99546.71
2024-03-26T01:15:19.981Z,99550.27
2024-03-26T01:17:50.627Z,99548.86
2024-03-26T01:20:18.384Z,99547.86
2024-03-26T01:22:48.399Z,99552.95
2024-03-26T01:25:16.185Z,99557.41
2024-03-26T01:27:46.287Z,99559.63
2024-03-26T01:30:14.053Z,99560.34
2024-03-26T01:32:43.952Z,99564.96
2024-03-26T01:35:11.731Z,99562.38
2024-03-26T01:37:39.387Z,99562.21
2024-03-26T01:40:13.001Z,99567.14
2024-03-26T01:42:40.753Z,99566.17
2024-03-26T01:45:10.058Z,99567.83
2024-03-26T01:47:39.267Z,99563.81
2024-03-26T01:50:12.080Z,99565.55
2024-03-26T01:52:40.735Z,99572.33
2024-03-26T01:55:10.236Z,99573.64
2024-03-26T01:57:38.333Z,99569.82
2024-03-26T02:00:08.997Z,99573.20
2024-03-26T02:02:45.877Z,99574.62
2024-03-26T02:05:13.995Z,99573.61
2024-03-26T02:07:45.061Z,99574.00
2024-03-26T02:10:14.590Z,99577.08
2024-03-26T02:12:43.972Z,99578.38
2024-03-26T02:15:11.815Z,99577.13
2024-03-26T02:17:41.943Z,99578.47
2024-03-26T02:20:11.440Z,99575.05
2024-03-26T02:22:40.430Z,99577.75
2024-03-26T02:25:08.501Z,99579.19
2024-03-26T02:27:36.154Z,99574.29
2024-03-26T02:30:05.976Z,99575.59
2024-03-26T02:32:33.736Z,99574.84
2024-03-26T02:35:03.955Z,99578.66
2024-03-26T02:37:31.616Z,99588.31
2024-03-26T02:39:59.388Z,99589.23
2024-03-26T02:42:28.176Z,99587.18
2024-03-26T02:44:55.936Z,99593.30
2024-03-26T02:47:26.055Z,99593.42
2024-03-26T02:49:53.719Z,99601.12
2024-03-26T02:52:21.527Z,99601.45
2024-03-26T02:54:50.891Z,99602.52
2024-03-26T02:57:18.558Z,99604.38
2024-03-26T02:59:46.248Z,99602.41
2024-03-26T03:02:15.308Z,99600.82
2024-03-26T03:04:43.180Z,99602.41
2024-03-26T03:07:10.753Z,99609.54
2024-03-26T03:09:40.857Z,99605.38
2024-03-26T03:12:08.823Z,99608.60
2024-03-26T03:14:38.942Z,99607.17
2024-03-26T03:17:06.708Z,99604.92
2024-03-26T03:19:34.369Z,99602.44
2024-03-26T03:22:03.297Z,99601.30
2024-03-26T03:24:30.918Z,99603.50
2024-03-26T03:27:01.142Z,99608.20
2024-03-26T03:29:28.806Z,99608.70
2024-03-26T03:31:56.673Z,99610.92
2024-03-26T03:34:25.671Z,99615.73
2024-03-26T03:36:53.326Z,99619.52
2024-03-26T03:39:20.995Z,99617.52
2024-03-26T03:41:49.940Z,99618.22
2024-03-26T03:44:17.646Z,99621.31
2024-03-26T03:46:45.320Z,99624.65
2024-03-26T03:49:14.405Z,99627.00
2024-03-26T03:51:42.065Z,99630.79
2024-03-26T03:54:09.732Z,99629.61
2024-03-26T03:56:38.619Z,99629.63
2024-03-26T03:59:07.408Z,99636.41
2024-03-26T04:01:37.323Z,99642.26
2024-03-26T04:04:05.187Z,99643.89
2024-03-26T04:06:33.261Z,99647.92
2024-03-26T04:09:02.164Z,99651.74
2024-03-26T04:11:29.968Z,99654.64
2024-03-26T04:13:58.096Z,99651.46
2024-03-26T04:16:26.989Z,99650.37
2024-03-26T04:18:55.885Z,99650.55
2024-03-26T04:21:26.549Z,99648.34
2024-03-26T04:23:54.396Z,99645.39
2024-03-26T04:26:24.600Z,99649.88
2024-03-26T04:28:52.370Z,99648.80
2024-03-26T04:31:20.135Z,99651.24
2024-03-26T04:33:49.528Z,99653.93
2024-03-26T04:36:17.618Z,99649.80
2024-03-26T04:38:47.766Z,99656.59
2024-03-26T04:41:17.449Z,99652.92
2024-03-26T04:43:46.538Z,99653.81
2024-03-26T04:46:27.287Z,99650.70
2024-03-26T04:48:55.410Z,99653.14
2024-03-26T04:51:23.262Z,99646.91
2024-03-26T04:53:50.913Z,99653.04
2024-03-26T04:56:20.054Z,99655.36
2024-03-26T04:58:47.763Z,99651.16
2024-03-26T05:01:15.544Z,99650.29
2024-03-26T05:03:44.606Z,99651.85
2024-03-26T05:06:12.380Z,99652.52
2024-03-26T05:08:40.105Z,99650.41
2024-03-26T05:11:09.174Z,99656.12
2024-03-26T05:13:37.016Z,99653.65
2024-03-26T05:16:06.626Z,99664.65
2024-03-26T05:18:36.217Z,99669.60
2024-03-26T05:21:04.706Z,99671.13
2024-03-26T05:23:34.752Z,99667.64
2024-03-26T05:26:02.978Z,99670.11
2024-03-26T05:28:33.280Z,99673.27
2024-03-26T05:31:21.149Z,99678.86
2024-03-26T05:33:51.031Z,99679.58
2024-03-26T05:36:19.270Z,99684.48
2024-03-26T05:38:48.216Z,99684.66
2024-03-26T05:41:16.307Z,99690.58
2024-03-26T05:43:43.958Z,99690.54
2024-03-26T05:46:12.873Z,99691.63
2024-03-26T05:48:40.917Z,99693.88
2024-03-26T05:51:08.610Z,99690.73
2024-03-26T05:53:37.565Z,99692.60
2024-03-26T05:56:08.058Z,99697.34
2024-03-26T05:58:38.692Z,99702.09
2024-03-26T06:01:06.868Z,99698.61
2024-03-26T06:03:34.488Z,99701.05
2024-03-26T06:06:02.851Z,99710.52
2024-03-26T06:08:30.577Z,99711.20
2024-03-26T06:10:58.487Z,99712.66
2024-03-26T06:13:27.364Z,99716.73
2024-03-26T06:16:06.224Z,99720.33
2024-03-26T06:18:35.914Z,99717.92
2024-03-26T06:21:05.678Z,99725.38
2024-03-26T06:23:33.957Z,99728.77
2024-03-26T06:26:01.738Z,99732.27
2024-03-26T06:28:29.469Z,99731.66
2024-03-26T06:30:58.418Z,99732.48
2024-03-26T06:33:27.275Z,99737.39
2024-03-26T06:35:57.130Z,99732.88
2024-03-26T06:38:24.795Z,99730.51
2024-03-26T06:40:54.616Z,99727.74
2024-03-26T06:43:24.917Z,99726.32
2024-03-26T06:45:52.764Z,99722.80
2024-03-26T06:48:20.514Z,99717.95
2024-03-26T06:50:49.152Z,99714.71
2024-03-26T06:53:16.778Z,99712.73
2024-03-26T06:55:46.677Z,99716.56
2024-03-26T06:58:15.669Z,99722.91
2024-03-26T07:00:46.004Z,99721.27
2024-03-26T07:03:13.656Z,99723.39
2024-03-26T07:05:41.489Z,99726.27
2024-03-26T07:08:10.485Z,99726.80
2024-03-26T07:10:38.595Z,99730.80
2024-03-26T07:13:15.273Z,99725.60
2024-03-26T07:15:45.973Z,99729.24
2024-03-26T07:18:15.043Z,99726.09
2024-03-26T07:20:42.985Z,99724.58
2024-03-26T07:23:11.046Z,99730.98
2024-03-26T07:25:39.987Z,99731.19
2024-03-26T07:28:07.946Z,99731.49
2024-03-26T07:30:38.190Z,99732.66
2024-03-26T07:33:06.854Z,99737.91
2024-03-26T07:35:37.188Z,99735.66
2024-03-26T07:38:05.514Z,99734.94
2024-03-26T07:40:36.999Z,99735.55
2024-03-26T07:43:13.492Z,99735.84
2024-03-26T07:45:50.878Z,99736.80
2024-03-26T07:48:21.137Z,99740.14
2024-03-26T07:50:51.886Z,99738.89
2024-03-26T07:53:19.960Z,99737.47
2024-03-26T07:55:52.743Z,99735.45
2024-03-26T07:58:20.962Z,99733.13
2024-03-26T08:00:51.886Z,99730.10
2024-03-26T08:03:20.595Z,99725.32
2024-03-26T08:05:54.692Z,99721.27
2024-03-26T08:08:23.484Z,99719.52
2024-03-26T08:10:55.633Z,99715.41
2024-03-26T08:13:26.371Z,99715.44
2024-03-26T08:15:55.849Z,99715.94
2024-03-26T08:18:26.532Z,99711.96
2024-03-26T08:20:54.885Z,99717.29
2024-03-26T08:23:24.175Z,99714.02
2024-03-26T08:25:56.483Z,99717.39
2024-03-26T08:28:28.339Z,99710.88
2024-03-26T08:30:57.459Z,99712.77
2024-03-26T08:33:25.312Z,99709.62
2024-03-26T08:35:56.725Z,99706.98
2024-03-26T08:38:27.894Z,99700.94
2024-03-26T08:40:57.312Z,99697.19
2024-03-26T08:43:28.451Z,99692.08
2024-03-26T08:45:57.563Z,99694.71
2024-03-26T08:48:27.884Z,99696.63
2024-03-26T08:51:00.055Z,99697.73
2024-03-26T08:53:30.756Z,99698.89
2024-03-26T08:56:08.644Z,99698.58
2024-03-26T08:58:44.946Z,99700.96
2024-03-26T09:01:14.873Z,99702.09
2024-03-26T09:03:44.482Z,99702.13
2024-03-26T09:06:13.884Z,99703.94
2024-03-26T09:08:42.880Z,99704.48
2024-03-26T09:11:11.463Z,99709.61
2024-03-26T09:13:43.162Z,99706.85
2024-03-26T09:16:12.216Z,99707.33
2024-03-26T09:18:42.301Z,99707.85
2024-03-26T09:21:11.533Z,99707.64
2024-03-26T09:23:40.377Z,99704.92
2024-03-26T09:26:12.958Z,99707.35
2024-03-26T09:28:42.794Z,99701.40
2024-03-26T09:34:57.399Z,99699.01
2024-03-26T09:37:26.906Z,99698.16
2024-03-26T09:39:55.084Z,99694.05
2024-03-26T09:42:26.222Z,99693.02
2024-03-26T09:45:02.168Z,99689.70
2024-03-26T09:47:39.050Z,99687.58
2024-03-26T09:50:08.855Z,99681.81
2024-03-26T09:52:39.909Z,99680.09
2024-03-26T09:55:11.311Z,99680.99
2024-03-26T09:57:40.984Z,99677.52
2024-03-26T10:00:10.107Z,99677.14
2024-03-26T10:02:41.410Z,99678.77
2024-03-26T10:05:17.935Z,99668.13
2024-03-26T10:07:48.154Z,99665.41
2024-03-26T10:10:17.200Z,99662.92
2024-03-26T10:12:46.498Z,99664.73
2024-03-26T10:15:15.080Z,99661.04
2024-03-26T10:17:44.608Z,99659.30
2024-03-26T10:20:13.484Z,99660.93
2024-03-26T10:22:42.087Z,99654.75
2024-03-26T10:25:11.638Z,99652.59
2024-03-26T10:27:41.811Z,99654.58
2024-03-26T10:30:10.432Z,99648.83
2024-03-26T10:32:40.093Z,99646.11
2024-03-26T10:35:12.260Z,99641.69
2024-03-26T10:37:42.279Z,99635.63
2024-03-26T10:40:20.601Z,99641.95
2024-03-26T10:42:54.608Z,99639.98
2024-03-26T10:45:37.794Z,99636.89
2024-03-26T10:48:17.807Z,99638.17
2024-03-26T10:50:47.085Z,99637.48
2024-03-26T10:53:21.380Z,99636.15
2024-03-26T10:55:54.357Z,99629.23
2024-03-26T10:58:22.347Z,99626.58
2024-03-26T11:00:53.390Z,99627.95
2024-03-26T11:03:23.384Z,99619.52
2024-03-26T11:05:52.817Z,99613.83
2024-03-26T11:08:21.950Z,99610.41
2024-03-26T11:11:03.894Z,99606.75
2024-03-26T11:13:35.780Z,99604.61
2024-03-26T11:16:09.515Z,99602.52
2024-03-26T11:18:40.312Z,99600.27
2024-03-26T11:21:10.456Z,99594.23
2024-03-26T11:23:44.597Z,99595.64
2024-03-26T11:26:26.605Z,99596.50
2024-03-26T11:29:00.436Z,99594.77
2024-03-26T11:31:30.336Z,99595.73
2024-03-26T11:34:05.443Z,99588.60
2024-03-26T11:36:37.932Z,99589.09
2024-03-26T11:39:08.776Z,99585.38
2024-03-26T11:41:38.950Z,99584.50
2024-03-26T11:44:09.598Z,99575.83
2024-03-26T11:46:38.859Z,99573.96
2024-03-26T11:49:09.447Z,99571.75
2024-03-26T11:51:41.396Z,99573.58
2024-03-26T11:54:13.491Z,99568.91
2024-03-26T11:56:43.586Z,99568.05
2024-03-26T11:59:15.567Z,99564.30
2024-03-26T12:01:45.435Z,99558.11
2024-03-26T12:04:15.992Z,99559.83
2024-03-26T12:06:45.501Z,99558.52
2024-03-26T12:09:15.740Z,99552.36
2024-03-26T12:11:44.432Z,99548.25
2024-03-26T12:14:15.377Z,99548.21
2024-03-26T12:16:44.518Z,99538.08
2024-03-26T12:19:16.277Z,99538.40
2024-03-26T12:21:46.938Z,99535.20
2024-03-26T12:24:18.961Z,99538.55
2024-03-26T12:26:47.647Z,99536.53
2024-03-26T12:29:16.023Z,99533.56
2024-03-26T12:31:44.098Z,99531.94
2024-03-26T12:34:14.125Z,99529.46
2024-03-26T12:36:45.666Z,99525.74
2024-03-26T12:39:13.680Z,99517.25
2024-03-26T12:41:41.861Z,99515.79
2024-03-26T12:44:16.361Z,99512.42
2024-03-26T12:46:48.109Z,99512.95
2024-03-26T12:49:21.650Z,99508.16
2024-03-26T12:51:58.747Z,99507.73
2024-03-26T12:54:29.687Z,99503.23
2024-03-26T12:57:00.451Z,99495.65
2024-03-26T12:59:31.435Z,99493.70
2024-03-26T13:02:02.709Z,99493.73
2024-03-26T13:04:33.022Z,99493.77
2024-03-26T13:07:02.313Z,99486.52
2024-03-26T13:09:31.725Z,99483.58
2024-03-26T13:12:02.442Z,99474.02
2024-03-26T13:14:33.407Z,99468.35
2024-03-26T13:17:04.979Z,99464.02
2024-03-26T13:19:35.884Z,99459.05
2024-03-26T13:22:08.623Z,99458.56
2024-03-26T13:24:39.591Z,99458.98
2024-03-26T13:27:11.858Z,99455.78
2024-03-26T13:29:42.723Z,99457.61
2024-03-26T13:32:11.704Z,99455.10
2024-03-26T13:34:41.990Z,99456.73
2024-03-26T13:37:11.582Z,99450.73
2024-03-26T13:39:45.053Z,99449.92
2024-03-26T13:42:15.390Z,99446.00
2024-03-26T13:44:49.678Z,99438.34
2024-03-26T13:47:19.234Z,99431.33
2024-03-26T13:49:50.675Z,99430.52
2024-03-26T13:52:20.476Z,99420.80
2024-03-26T13:54:52.749Z,99415.89
2024-03-26T13:57:24.936Z,99411.26
2024-03-26T13:59:56.404Z,99405.10
2024-03-26T14:02:25.854Z,99402.01
2024-03-26T14:04:55.808Z,99394.02
2024-03-26T14:07:23.571Z,99396.42
2024-03-26T14:09:53.689Z,99393.95
2024-03-26T14:12:21.358Z,99385.58
2024-03-26T14:14:49.122Z,99388.44
2024-03-26T14:17:18.021Z,99392.72
2024-03-26T14:19:46.709Z,99388.84
2024-03-26T14:22:17.434Z,99380.77
2024-03-26T14:24:45.094Z,99378.55
2024-03-26T14:27:15.136Z,99374.46
2024-03-26T14:29:42.827Z,99368.73
2024-03-26T14:32:14.943Z,99370.82
2024-03-26T14:34:42.606Z,99366.01
2024-03-26T14:37:11.599Z,99359.93
2024-03-26T14:39:39.472Z,99357.34
2024-03-26T14:42:07.161Z,99356.88
2024-03-26T14:44:36.326Z,99350.54
2024-03-26T14:47:03.989Z,99347.69
2024-03-26T14:49:31.755Z,99344.15
2024-03-26T14:52:01.214Z,99337.80
2024-03-26T14:54:28.921Z,99335.14
2024-03-26T14:56:59.146Z,99330.89
2024-03-26T14:59:26.814Z,99331.36
2024-03-26T15:01:57.340Z,99328.31
2024-03-26T15:04:25.130Z,99327.42
2024-03-26T15:06:52.880Z,99324.91
2024-03-26T15:09:21.142Z,99326.32
2024-03-26T15:11:49.572Z,99322.73
2024-03-26T15:14:20.561Z,99319.11
2024-03-26T15:16:49.344Z,99320.88
2024-03-26T15:19:18.349Z,99317.30
2024-03-26T15:21:46.054Z,99314.24
2024-03-26T15:24:13.751Z,99307.41
2024-03-26T15:27:01.827Z,99302.01
2024-03-26T15:29:49.443Z,99307.09
2024-03-26T15:32:20.890Z,99297.48
2024-03-26T15:34:50.358Z,99295.42
2024-03-26T15:37:20.215Z,99298.59
2024-03-26T15:39:47.986Z,99296.75
2024-03-26T15:42:19.089Z,99294.95
2024-03-26T15:44:46.786Z,99289.87
2024-03-26T15:47:15.778Z,99293.52
2024-03-26T15:49:43.491Z,99289.23
2024-03-26T15:52:12.029Z,99282.83
2024-03-26T15:54:41.024Z,99280.75
2024-03-26T15:57:09.633Z,99273.59
2024-03-26T15:59:40.252Z,99270.31
2024-03-26T16:02:09.910Z,99269.34
2024-03-26T16:04:39.565Z,99268.23
2024-03-26T16:07:07.525Z,99264.39
2024-03-26T16:09:35.393Z,99261.52
2024-03-26T16:12:05.324Z,99260.97
2024-03-26T16:14:33.279Z,99258.20
2024-03-26T16:17:03.660Z,99258.96
2024-03-26T16:19:31.426Z,99254.00
2024-03-26T16:21:59.134Z,99254.36
2024-03-26T16:24:28.326Z,99251.31
2024-03-26T16:26:56.099Z,99253.44
2024-03-26T16:29:25.630Z,99247.14
2024-03-26T16:31:54.511Z,99246.00
2024-03-26T16:34:22.251Z,99245.54
2024-03-26T16:36:50.019Z,99241.59
2024-03-26T16:39:19.447Z,99236.74
2024-03-26T16:41:47.813Z,99234.21
2024-03-26T16:44:18.645Z,99227.66
2024-03-26T16:46:46.408Z,99225.71
2024-03-26T16:49:16.525Z,99222.79
2024-03-26T16:51:44.184Z,99224.33
2024-03-26T16:54:11.850Z,99214.16
2024-03-26T16:56:40.837Z,99212.63
2024-03-26T16:59:09.119Z,99207.80
2024-03-26T17:01:36.877Z,99202.58
2024-03-26T17:04:07.110Z,99199.77
2024-03-26T17:06:34.823Z,99196.65
2024-03-26T17:09:08.062Z,99195.53
2024-03-26T17:11:38.909Z,99191.83
2024-03-26T17:14:08.360Z,99187.06
2024-03-26T17:16:59.298Z,99186.48
2024-03-26T17:19:27.502Z,99185.14
2024-03-26T17:21:55.555Z,99183.75
2024-03-26T17:24:25.887Z,99180.80
2024-03-26T17:26:53.773Z,99181.33
2024-03-26T17:29:24.494Z,99181.06
2024-03-26T17:31:52.244Z,99176.77
2024-03-26T17:34:22.468Z,99174.90
2024-03-26T17:36:50.350Z,99179.63
2024-03-26T17:39:18.110Z,99178.58
2024-03-26T17:41:47.199Z,99177.50
2024-03-26T17:44:15.257Z,99177.84
2024-03-26T17:46:43.252Z,99175.65
2024-03-26T17:49:12.285Z,99182.73
2024-03-26T17:51:40.673Z,99181.27
2024-03-26T17:54:10.733Z,99183.61
2024-03-26T17:56:39.156Z,99187.89
2024-03-26T17:59:08.320Z,99187.04
2024-03-26T18:01:36.388Z,99193.14
2024-03-26T18:04:04.860Z,99187.36
2024-03-26T18:06:33.857Z,99187.86
2024-03-26T18:09:01.721Z,99190.73
2024-03-26T18:11:29.724Z,99191.33
2024-03-26T18:13:58.072Z,99187.64
2024-03-26T18:16:25.943Z,99188.34
2024-03-26T18:18:56.286Z,99190.77
2024-03-26T18:21:26.223Z,99189.30
2024-03-26T18:23:57.513Z,99194.28
2024-03-26T18:26:26.152Z,99198.54
2024-03-26T18:28:56.041Z,99199.28
2024-03-26T18:31:25.129Z,99194.60
2024-03-26T18:33:55.176Z,99194.42
2024-03-26T18:36:23.836Z,99194.33
2024-03-26T18:38:53.434Z,99192.91
2024-03-26T18:41:22.022Z,99192.97
2024-03-26T18:43:53.488Z,99193.10
2024-03-26T18:46:26.799Z,99187.89
2024-03-26T18:48:59.153Z,99190.42
2024-03-26T18:51:28.351Z,99184.73
2024-03-26T18:54:00.736Z,99184.66
2024-03-26T18:56:28.592Z,99184.02
2024-03-26T18:58:58.150Z,99186.13
2024-03-26T19:01:27.831Z,99190.14
2024-03-26T19:03:57.614Z,99189.73
2024-03-26T19:06:25.376Z,99189.64
2024-03-26T19:08:55.921Z,99188.71
2024-03-26T19:11:24.072Z,99187.75
2024-03-26T19:13:54.508Z,99189.28
2024-03-26T19:16:22.164Z,99191.29
2024-03-26T19:18:50.211Z,99191.35
2024-03-26T19:21:20.671Z,99195.08
2024-03-26T19:23:49.350Z,99196.20
2024-03-26T19:26:20.425Z,99197.96
2024-03-26T19:28:49.073Z,99199.02
2024-03-26T19:31:18.584Z,99201.83
2024-03-26T19:33:46.348Z,99203.21
2024-03-26T19:36:17.356Z,99207.81
2024-03-26T19:38:46.381Z,99205.30
2024-03-26T19:41:15.990Z,99207.33
2024-03-26T19:43:46.111Z,99202.60
2024-03-26T19:46:15.015Z,99203.10
2024-03-26T19:48:45.503Z,99204.56
2024-03-26T19:51:14.115Z,99205.20
2024-03-26T19:53:44.142Z,99206.58
2024-03-26T19:56:15.893Z,99207.14
2024-03-26T19:58:44.901Z,99204.96
2024-03-26T20:01:13.000Z,99205.59
2024-03-26T20:03:44.235Z,99202.99
2024-03-26T20:06:13.077Z,99201.45
2024-03-26T20:08:44.588Z,99200.10
2024-03-26T20:11:16.007Z,99202.81
2024-03-26T20:13:45.812Z,99194.75
2024-03-26T20:16:20.948Z,99196.98
2024-03-26T20:18:50.350Z,99192.33
2024-03-26T20:21:18.229Z,99191.16
2024-03-26T20:23:47.423Z,99189.17
2024-03-26T20:26:15.387Z,99184.30
2024-03-26T20:28:43.146Z,99183.73
2024-03-26T20:31:14.608Z,99179.20
2024-03-26T20:33:43.184Z,99174.44
2024-03-26T20:36:17.719Z,99171.11
2024-03-26T20:38:49.157Z,99172.14
2024-03-26T20:41:16.933Z,99165.77
2024-03-26T20:43:45.306Z,99164.80
2024-03-26T20:46:13.379Z,99161.46
2024-03-26T20:48:41.173Z,99157.85
2024-03-26T20:51:12.155Z,99153.09
2024-03-26T20:53:41.313Z,99149.95
2024-03-26T20:56:10.378Z,99151.27
2024-03-26T20:58:38.860Z,99150.76
2024-03-26T21:01:16.980Z,99147.45
2024-03-26T21:03:47.605Z,99144.70
2024-03-26T21:06:16.511Z,99145.83
2024-03-26T21:08:45.789Z,99140.69
2024-03-26T21:11:14.278Z,99143.17
2024-03-26T21:13:44.291Z,99136.36
2024-03-26T21:16:14.106Z,99132.75
2024-03-26T21:18:49.133Z,99133.08
2024-03-26T21:21:21.259Z,99132.05
2024-03-26T21:23:49.715Z,99124.91
2024-03-26T21:26:19.260Z,99125.30
2024-03-26T21:28:47.662Z,99120.45
2024-03-26T21:31:18.220Z,99114.48
2024-03-26T21:33:46.608Z,99116.05
2024-03-26T21:36:16.598Z,99111.29
2024-03-26T21:38:44.674Z,99109.68
2024-03-26T21:41:16.191Z,99107.67
2024-03-26T21:43:44.191Z,99103.54
2024-03-26T21:46:13.186Z,99103.51
2024-03-26T21:48:42.390Z,99099.44
2024-03-26T21:51:12.623Z,99098.88
2024-03-26T21:53:41.438Z,99092.83
2024-03-26T21:56:12.441Z,99097.90
2024-03-26T21:58:40.959Z,99095.57
2024-03-26T22:01:11.727Z,99093.16
2024-03-26T22:03:40.042Z,99097.29
2024-03-26T22:06:13.220Z,99093.52
2024-03-26T22:08:42.638Z,99092.61
2024-03-26T22:11:14.659Z,99090.58
2024-03-26T22:13:42.567Z,99085.48
2024-03-26T22:16:11.799Z,99075.05
2024-03-26T22:18:39.738Z,99082.25
2024-03-26T22:21:07.483Z,99079.14
2024-03-26T22:23:36.791Z,99071.54
2024-03-26T22:26:09.499Z,99070.70
2024-03-26T22:28:39.288Z,99068.91
2024-03-26T22:31:07.362Z,99063.64
2024-03-26T22:33:38.305Z,99061.70
2024-03-26T22:36:10.227Z,99058.64
2024-03-26T22:38:39.416Z,99050.64
2024-03-26T22:41:08.314Z,99047.91
2024-03-26T22:43:41.134Z,99038.42
2024-03-26T22:46:10.729Z,99037.84
2024-03-26T22:48:41.804Z,99042.27
2024-03-26T22:51:10.066Z,99045.74
2024-03-26T22:53:39.257Z,99044.34
2024-03-26T22:56:08.001Z,99043.09
2024-03-26T22:58:37.241Z,99041.63
2024-03-26T23:01:08.581Z,99038.00
2024-03-26T23:03:37.683Z,99035.66
2024-03-26T23:06:06.181Z,99038.65
2024-03-26T23:08:37.116Z,99038.91
2024-03-26T23:11:05.102Z,99037.30
2024-03-26T23:13:36.221Z,99038.84
2024-03-26T23:16:04.699Z,99034.95
2024-03-26T23:18:33.696Z,99030.90
2024-03-26T23:21:01.462Z,99027.71
2024-03-26T23:23:29.433Z,99026.96
2024-03-26T23:25:58.730Z,99025.02
2024-03-26T23:28:26.504Z,99026.11
2024-03-26T23:30:54.461Z,99020.86
2024-03-26T23:33:23.982Z,99015.71
2024-03-26T23:35:51.851Z,99014.84
2024-03-26T23:38:21.959Z,99015.29
2024-03-26T23:40:50.444Z,99010.43
2024-03-26T23:43:22.408Z,99013.24
2024-03-26T23:45:50.274Z,99011.13
2024-03-26T23:48:19.201Z,99008.86
2024-03-26T23:50:47.022Z,99009.90
2024-03-26T23:53:17.046Z,99007.42
2024-03-26T23:55:45.339Z,99005.36
2024-03-26T23:58:15.528Z,99005.64
